createdAt,value
2022-09-02T00:01:57.971Z,16.4
2022-09-02T00:13:57.894Z,16.4
2022-09-02T00:25:58.316Z,16.2
2022-09-02T00:37:57.879Z,16.1
2022-09-02T00:49:57.861Z,16.0
2022-09-02T01:01:57.932Z,15.9
2022-09-02T01:13:57.846Z,15.8
2022-09-02T01:25:57.851Z,15.7
2022-09-02T01:37:57.863Z,15.6
2022-09-02T01:49:58.098Z,15.4
2022-09-02T02:01:57.954Z,15.1
2022-09-02T02:13:57.881Z,14.9
2022-09-02T02:25:57.837Z,14.7
2022-09-02T02:37:57.846Z,14.5
2022-09-02T02:49:59.637Z,14.4
2022-09-02T03:01:57.959Z,14.2
2022-09-02T03:13:57.882Z,14.2
2022-09-02T03:25:57.865Z,14.2
2022-09-02T03:37:57.842Z,14.0
2022-09-02T03:49:57.880Z,13.8
2022-09-02T04:01:57.919Z,13.7
2022-09-02T04:13:57.857Z,13.4
2022-09-02T04:25:57.894Z,13.5
2022-09-02T04:37:57.872Z,13.5
2022-09-02T04:49:57.873Z,13.3
2022-09-02T05:01:58.010Z,13.3
2022-09-02T05:13:57.898Z,13.4
2022-09-02T05:25:57.900Z,13.5
2022-09-02T05:38:00.914Z,13.6
2022-09-02T05:49:57.923Z,13.9
2022-09-02T06:01:58.029Z,14.6
2022-09-02T06:13:57.936Z,15.0
2022-09-02T06:25:57.904Z,16.6
2022-09-02T06:37:57.932Z,17.2
2022-09-02T06:49:57.854Z,17.6
2022-09-02T07:01:58.082Z,17.8
2022-09-02T07:13:57.874Z,18.1
2022-09-02T07:25:57.853Z,18.6
2022-09-02T07:37:57.854Z,18.6
2022-09-02T07:50:20.994Z,19.3
2022-09-02T08:01:57.928Z,19.2
2022-09-02T08:13:57.852Z,19.5
2022-09-02T08:25:57.839Z,20.0
2022-09-02T08:37:57.839Z,20.5
2022-09-02T08:49:57.878Z,20.7
2022-09-02T09:01:57.917Z,21.1
2022-09-02T09:13:57.882Z,21.8
2022-09-02T09:25:57.858Z,21.7
2022-09-02T09:37:57.860Z,22.0
2022-09-02T09:49:57.889Z,22.7
2022-09-02T10:01:57.926Z,22.4
2022-09-02T10:13:57.877Z,22.9
2022-09-02T10:25:57.871Z,22.8
2022-09-02T10:37:57.841Z,23.0
2022-09-02T10:49:57.863Z,22.9
2022-09-02T11:01:57.861Z,21.8
2022-09-02T11:13:57.883Z,23.2
2022-09-02T11:25:57.945Z,23.9
2022-09-02T11:37:57.890Z,24.1
2022-09-02T11:49:57.844Z,23.9
2022-09-02T12:01:57.869Z,23.8
2022-09-02T12:13:57.862Z,23.8
2022-09-02T12:25:57.881Z,24.0
2022-09-02T12:37:57.867Z,23.9
2022-09-02T12:49:57.874Z,23.3
2022-09-02T13:13:57.857Z,23.7
2022-09-02T13:25:57.863Z,23.7
2022-09-02T13:37:57.969Z,23.6
2022-09-02T13:49:57.881Z,23.9
2022-09-02T14:01:58.038Z,23.6
2022-09-02T14:13:57.856Z,23.5
2022-09-02T14:25:57.880Z,23.5
2022-09-02T14:37:57.860Z,23.5
2022-09-02T14:49:57.891Z,23.1
2022-09-02T15:01:57.877Z,23.2
2022-09-02T15:13:57.863Z,23.2
2022-09-02T15:25:57.849Z,23.1
2022-09-02T15:37:58.221Z,22.9
2022-09-02T15:49:57.882Z,22.9
2022-09-02T16:01:57.899Z,22.8
2022-09-02T16:13:57.866Z,22.6
2022-09-02T16:25:57.869Z,22.3
2022-09-02T16:37:58.519Z,22.3
2022-09-02T16:49:57.886Z,22.0
2022-09-02T17:01:57.954Z,21.8
2022-09-02T17:13:57.870Z,21.5
2022-09-02T17:25:57.861Z,21.1
2022-09-02T17:37:57.856Z,21.0
2022-09-02T17:49:58.141Z,20.6
2022-09-02T18:01:58.050Z,20.1
2022-09-02T18:13:57.869Z,19.6
2022-09-02T18:25:58.057Z,18.5
2022-09-02T18:37:57.848Z,18.3
2022-09-02T18:49:57.873Z,17.9
2022-09-02T19:01:58.021Z,17.5
2022-09-02T19:13:57.868Z,17.4
2022-09-02T19:25:57.866Z,17.1
2022-09-02T19:37:57.853Z,16.9
2022-09-02T19:49:57.877Z,16.6
2022-09-02T20:01:57.951Z,16.2
2022-09-02T20:13:58.077Z,16.7
2022-09-02T20:25:57.939Z,16.5
2022-09-02T20:37:57.907Z,16.8
2022-09-02T20:49:57.925Z,16.9
2022-09-02T21:01:57.993Z,16.9
2022-09-02T21:13:57.915Z,16.5
2022-09-02T21:25:57.898Z,16.8
2022-09-02T21:37:57.866Z,16.7
2022-09-02T21:49:57.880Z,16.3
2022-09-02T22:01:57.897Z,15.9
2022-09-02T22:13:58.242Z,15.9
2022-09-02T22:25:57.862Z,16.0
2022-09-02T22:37:57.847Z,15.9
2022-09-02T22:49:57.864Z,16.0
2022-09-02T23:01:57.924Z,15.9
2022-09-02T23:13:57.871Z,15.6
2022-09-02T23:25:57.844Z,15.4
2022-09-02T23:37:57.857Z,15.3
2022-09-02T23:49:57.898Z,15.2
